Map

Track Data

SID SEASON NUMBER BASIN SUBBASIN NAME ISO_TIME NATURE LAT LON WMO_WIND WMO_PRES WMO_AGENCY TRACK_TYPE DIST2LAND LANDFALL IFLAG USA_AGENCY USA_ATCF_ID USA_LAT USA_LON USA_RECORD USA_STATUS USA_WIND USA_PRES USA_SSHS USA_R34_NE USA_R34_SE USA_R34_SW USA_R34_NW USA_R50_NE USA_R50_SE USA_R50_SW USA_R50_NW USA_R64_NE USA_R64_SE USA_R64_SW USA_R64_NW USA_POCI USA_ROCI USA_RMW USA_EYE TOKYO_LAT TOKYO_LON TOKYO_GRADE TOKYO_WIND TOKYO_PRES TOKYO_R50_DIR TOKYO_R50_LONG TOKYO_R50_SHORT TOKYO_R30_DIR TOKYO_R30_LONG TOKYO_R30_SHORT TOKYO_LAND CMA_LAT CMA_LON CMA_CAT CMA_WIND CMA_PRES HKO_LAT HKO_LON HKO_CAT HKO_WIND HKO_PRES NEWDELHI_LAT NEWDELHI_LON NEWDELHI_GRADE NEWDELHI_WIND NEWDELHI_PRES NEWDELHI_CI NEWDELHI_DP NEWDELHI_POCI REUNION_LAT REUNION_LON REUNION_TYPE REUNION_WIND REUNION_PRES REUNION_TNUM REUNION_CI REUNION_RMW REUNION_R34_NE REUNION_R34_SE REUNION_R34_SW REUNION_R34_NW REUNION_R50_NE REUNION_R50_SE REUNION_R50_SW REUNION_R50_NW REUNION_R64_NE REUNION_R64_SE REUNION_R64_SW REUNION_R64_NW BOM_LAT BOM_LON BOM_TYPE BOM_WIND BOM_PRES BOM_TNUM BOM_CI BOM_RMW BOM_R34_NE BOM_R34_SE BOM_R34_SW BOM_R34_NW BOM_R50_NE BOM_R50_SE BOM_R50_SW BOM_R50_NW BOM_R64_NE BOM_R64_SE BOM_R64_SW BOM_R64_NW BOM_ROCI BOM_POCI BOM_EYE BOM_POS_METHOD BOM_PRES_METHOD NADI_LAT NADI_LON NADI_CAT NADI_WIND NADI_PRES WELLINGTON_LAT WELLINGTON_LON WELLINGTON_WIND WELLINGTON_PRES DS824_LAT DS824_LON DS824_STAGE DS824_WIND DS824_PRES TD9636_LAT TD9636_LON TD9636_STAGE TD9636_WIND TD9636_PRES TD9635_LAT TD9635_LON TD9635_WIND TD9635_PRES TD9635_ROCI NEUMANN_LAT NEUMANN_LON NEUMANN_CLASS NEUMANN_WIND NEUMANN_PRES MLC_LAT MLC_LON MLC_CLASS MLC_WIND MLC_PRES USA_GUST BOM_GUST BOM_GUST_PER REUNION_GUST REUNION_GUST_PER USA_SEAHGT USA_SEARAD_NE USA_SEARAD_SE USA_SEARAD_SW USA_SEARAD_NW STORM_SPEED STORM_DIR
1983160N11266 1983 25 EP MM BARBARA 1983-06-09 00:00:00 TS 11.2000 -93.9000 30 hurdat_epa main 405 405 O_________O___ hurdat_epa EP021983 11.2000 -93.9000 TD 30 -1 11.2000 -93.9000 1 30 12 270
1983160N11266 1983 25 EP MM BARBARA 1983-06-09 03:00:00 TS 11.2021 -94.5076 main 445 445 P_________P___ EP021983 11.2003 -94.5075 TD 30 -1 11.2075 -94.5077 1 30 12 270
1983160N11266 1983 25 EP MM BARBARA 1983-06-09 06:00:00 TS 11.2028 -95.1006 30 hurdat_epa main 485 485 O_________P___ hurdat_epa EP021983 11.2000 -95.1000 TD 30 -1 11.2114 -95.1024 1 30 11 270
1983160N11266 1983 25 EP MM BARBARA 1983-06-09 09:00:00 TS 11.2023 -95.6665 main 502 494 P_________P___ EP021983 11.1999 -95.6650 TD 30 -1 11.2096 -95.6709 1 30 11 270
1983160N11266 1983 25 EP MM BARBARA 1983-06-09 12:00:00 TS 11.2000 -96.2000 30 hurdat_epa main 494 492 O_________O___ hurdat_epa EP021983 11.2000 -96.2000 TD 30 -1 11.2000 -96.2000 1 30 10 270
1983160N11266 1983 25 EP MM BARBARA 1983-06-09 15:00:00 TS 11.2009 -96.7071 main 492 492 P_________P___ EP021983 11.2074 -96.7150 TD 30 -1 11.1815 -96.6835 1 31 10 269
1983160N11266 1983 25 EP MM BARBARA 1983-06-09 18:00:00 TS 11.1891 -97.1856 30 hurdat_epa main 496 496 O_________P___ hurdat_epa EP021983 11.2000 -97.2000 TD 30 -1 11.1565 -97.1425 1 32 9 267
1983160N11266 1983 25 EP MM BARBARA 1983-06-09 21:00:00 TS 11.1500 -97.6276 main 504 504 P_________P___ EP021983 11.1573 -97.6350 TD 32 -1 11.1283 -97.6053 1 33 9 264
1983160N11266 1983 25 EP MM BARBARA 1983-06-10 00:00:00 TS 11.1000 -98.1000 35 hurdat_epa main 529 529 O_________O___ hurdat_epa EP021983 11.1000 -98.1000 TS 35 0 11.1000 -98.1000 2 35 10 264
1983160N11266 1983 25 EP MM BARBARA 1983-06-10 03:00:00 TS 11.0497 -98.6783 main 562 562 P_________P___ EP021983 11.0425 -98.6776 TS 37 0 11.0711 -98.6804 2 37 12 266
1983160N11266 1983 25 EP MM BARBARA 1983-06-10 06:00:00 TS 11.0107 -99.2982 40 hurdat_epa main 582 582 O_________P___ hurdat_epa EP021983 11.0000 -99.3000 TS 40 0 11.0428 -99.2926 2 40 12 268
1983160N11266 1983 25 EP MM BARBARA 1983-06-10 09:00:00 TS 10.9988 -99.9077 main 604 604 P_________P___ EP021983 10.9924 -99.9075 TS 42 0 11.0180 -99.9085 2 42 12 269
1983160N11266 1983 25 EP MM BARBARA 1983-06-10 12:00:00 TS 11.0000 -100.500 45 hurdat_epa main 627 627 O_________O___ hurdat_epa EP021983 11.0000 -100.500 TS 45 0 11.0000 -100.500 2 45 11 270
1983160N11266 1983 25 EP MM BARBARA 1983-06-10 15:00:00 TS 10.9951 -101.070 main 652 652 P_________P___ EP021983 10.9999 -101.072 TS 45 0 10.9804 -101.061 2 45 11 270
1983160N11266 1983 25 EP MM BARBARA 1983-06-10 18:00:00 TS 10.9925 -101.597 45 hurdat_epa main 670 670 O_________P___ hurdat_epa EP021983 11.0000 -101.600 TS 45 0 10.9699 -101.590 2 45 10 270
1983160N11266 1983 25 EP MM BARBARA 1983-06-10 21:00:00 TS 10.9879 -102.084 main 688 688 P_________P___ EP021983 10.9924 -102.088 TS 45 0 10.9743 -102.074 2 45 9 270
1983160N11266 1983 25 EP MM BARBARA 1983-06-11 00:00:00 TS 11.0000 -102.500 45 hurdat_epa main 706 706 O_________O___ hurdat_epa EP021983 11.0000 -102.500 TS 45 0 11.0000 -102.500 2 45 7 274
1983160N11266 1983 25 EP MM BARBARA 1983-06-11 03:00:00 TS 11.0363 -102.825 main 720 715 P_________P___ EP021983 11.0349 -102.823 TS 45 0 11.0406 -102.833 2 46 6 280
1983160N11266 1983 25 EP MM BARBARA 1983-06-11 06:00:00 TS 11.1010 -103.104 45 hurdat_epa main 726 722 O_________P___ hurdat_epa EP021983 11.1000 -103.100 TS 45 0 11.1041 -103.115 2 47 6 286
1983160N11266 1983 25 EP MM BARBARA 1983-06-11 09:00:00 TS 11.1920 -103.386 main 726 723 P_________P___ EP021983 11.1924 -103.385 TS 47 0 11.1906 -103.390 2 48 6 289
1983160N11266 1983 25 EP MM BARBARA 1983-06-11 12:00:00 TS 11.3000 -103.700 50 hurdat_epa main 727 726 O_________O___ hurdat_epa EP021983 11.3000 -103.700 TS 50 0 11.3000 -103.700 2 50 7 287
1983160N11266 1983 25 EP MM BARBARA 1983-06-11 15:00:00 TS 11.3958 -104.074 main 735 735 P_________P___ EP021983 11.3849 -104.070 TS 52 0 11.4283 -104.087 2 51 8 286
1983160N11266 1983 25 EP MM BARBARA 1983-06-11 18:00:00 TS 11.5193 -104.504 55 hurdat_epa main 745 741 O_________P___ hurdat_epa EP021983 11.5000 -104.500 TS 55 0 11.5772 -104.518 2 52 9 289
1983160N11266 1983 25 EP MM BARBARA 1983-06-11 21:00:00 TS 11.7037 -104.975 main 750 743 P_________P___ EP021983 11.6924 -104.970 TS 55 0 11.7375 -104.990 2 53 10 291
1983160N11266 1983 25 EP MM BARBARA 1983-06-12 00:00:00 TS 11.9000 -105.500 55 hurdat_epa main 747 743 O_________O___ hurdat_epa EP021983 11.9000 -105.500 TS 55 0 11.9000 -105.500 2 55 11 288
1983160N11266 1983 25 EP MM BARBARA 1983-06-12 03:00:00 TS 12.0529 -106.078 main 747 747 P_________P___ EP021983 12.0575 -106.093 TS 55 0 12.0389 -106.036 2 55 12 284
1983160N11266 1983 25 EP MM BARBARA 1983-06-12 06:00:00 TS 12.1949 -106.677 55 hurdat_epa main 764 764 O_________P___ hurdat_epa EP021983 12.2000 -106.700 TS 55 0 12.1795 -106.606 2 55 12 284
1983160N11266 1983 25 EP MM BARBARA 1983-06-12 09:00:00 TS 12.3393 -107.237 main 780 775 P_________P___ EP021983 12.3423 -107.250 TS 55 0 12.3303 -107.198 2 55 11 286
1983160N11266 1983 25 EP MM BARBARA 1983-06-12 12:00:00 TS 12.5000 -107.800 55 hurdat_epa main 796 796 O_________O___ hurdat_epa EP021983 12.5000 -107.800 TS 55 0 12.5000 -107.800 2 55 12 288
1983160N11266 1983 25 EP MM BARBARA 1983-06-12 15:00:00 TS 12.7085 -108.417 main 817 817 P_________P___ EP021983 12.7076 -108.415 TS 60 0 12.7114 -108.422 2 60 12 289
1983160N11266 1983 25 EP MM BARBARA 1983-06-12 18:00:00 TS 12.9000 -109.000 65 hurdat_epa main 835 835 O_________O___ hurdat_epa EP021983 12.9000 -109.000 HU 65 1 12.9000 -109.000 3 65 11 286
1983160N11266 1983 25 EP MM BARBARA 1983-06-12 21:00:00 TS 13.0158 -109.500 main 856 856 P_________P___ EP021983 13.0149 -109.503 HU 70 1 13.0186 -109.492 3 70 9 283
1983160N11266 1983 25 EP MM BARBARA 1983-06-13 00:00:00 TS 13.1000 -109.900 75 hurdat_epa main 873 873 O_________O___ hurdat_epa EP021983 13.1000 -109.900 HU 75 1 13.1000 -109.900 4 75 7 286
1983160N11266 1983 25 EP MM BARBARA 1983-06-13 03:00:00 TS 13.2025 -110.189 main 885 883 P_________P___ EP021983 13.2073 -110.173 HU 75 1 13.1878 -110.240 4 81 6 290
1983160N11266 1983 25 EP MM BARBARA 1983-06-13 06:00:00 TS 13.2916 -110.429 75 hurdat_epa main 890 890 O_________P___ hurdat_epa EP021983 13.3000 -110.400 HU 75 1 13.2665 -110.515 4 87 5 286
1983160N11266 1983 25 EP MM BARBARA 1983-06-13 09:00:00 TS 13.3524 -110.714 main 904 904 P_________P___ EP021983 13.3575 -110.700 HU 87 2 13.3370 -110.757 4 93 6 281
1983160N11266 1983 25 EP MM BARBARA 1983-06-13 12:00:00 TS 13.4000 -111.000 100 hurdat_epa main 926 926 O_________O___ hurdat_epa EP021983 13.4000 -111.000 HU 100 3 13.4000 -111.000 4 100 5 281
1983160N11266 1983 25 EP MM BARBARA 1983-06-13 15:00:00 TS 13.4507 -111.258 main 941 941 P_________P___ EP021983 13.4499 -111.243 HU 107 3 13.4532 -111.305 4 103 5 281
1983160N11266 1983 25 EP MM BARBARA 1983-06-13 18:00:00 TS 13.5000 -111.529 115 hurdat_epa main 957 957 O_________P___ hurdat_epa EP021983 13.5000 -111.500 HU 115 4 13.5001 -111.615 4 107 6 279
1983160N11266 1983 25 EP MM BARBARA 1983-06-13 21:00:00 TS 13.5493 -111.873 main 987 979 P_________P___ EP021983 13.5501 -111.857 HU 115 4 13.5469 -111.918 4 111 7 279
1983160N11266 1983 25 EP MM BARBARA 1983-06-14 00:00:00 TS 13.6000 -112.200 115 hurdat_epa main 1002 1002 O_________O___ hurdat_epa EP021983 13.6000 -112.200 HU 115 4 13.6000 -112.200 4 115 5 280
1983160N11266 1983 25 EP MM BARBARA 1983-06-14 03:00:00 TS 13.6436 -112.425 main 1018 1018 P_________P___ EP021983 13.6424 -112.415 HU 115 4 13.6474 -112.455 4 115 4 284
1983160N11266 1983 25 EP MM BARBARA 1983-06-14 06:00:00 TS 13.7012 -112.622 115 hurdat_epa main 1027 1027 O_________P___ hurdat_epa EP021983 13.7000 -112.600 HU 115 4 13.7049 -112.688 4 115 4 288
1983160N11266 1983 25 EP MM BARBARA 1983-06-14 09:00:00 TS 13.7794 -112.857 main 1044 1044 P_________P___ EP021983 13.7775 -112.843 HU 115 4 13.7849 -112.902 4 115 5 293
1983160N11266 1983 25 EP MM BARBARA 1983-06-14 12:00:00 TS 13.9000 -113.100 115 hurdat_epa main 1053 1044 O_________O___ hurdat_epa EP021983 13.9000 -113.100 HU 115 4 13.9000 -113.100 4 115 6 302
1983160N11266 1983 25 EP MM BARBARA 1983-06-14 15:00:00 TS 14.0778 -113.356 main 1047 1030 P_________P___ EP021983 14.0850 -113.372 HU 110 3 14.0559 -113.306 4 111 6 310
1983160N11266 1983 25 EP MM BARBARA 1983-06-14 18:00:00 TS 14.2869 -113.574 105 hurdat_epa main 1034 1017 O_________P___ hurdat_epa EP021983 14.3000 -113.600 HU 105 3 14.2475 -113.495 4 107 5 321
1983160N11266 1983 25 EP MM BARBARA 1983-06-14 21:00:00 TS 14.4913 -113.707 main 1017 1000 P_________P___ EP021983 14.5000 -113.723 HU 102 3 14.4653 -113.662 4 103 5 332
1983160N11266 1983 25 EP MM BARBARA 1983-06-15 00:00:00 TS 14.7000 -113.800 100 hurdat_epa main 1000 984 O_________O___ hurdat_epa EP021983 14.7000 -113.800 HU 100 3 14.7000 -113.800 4 100 5 334
1983160N11266 1983 25 EP MM BARBARA 1983-06-15 03:00:00 TS 14.8946 -113.909 main 984 968 P_________P___ EP021983 14.8850 -113.908 HU 95 2 14.9234 -113.912 4 97 5 335
1983160N11266 1983 25 EP MM BARBARA 1983-06-15 06:00:00 TS 15.1156 -113.999 90 hurdat_epa main 968 942 O_________P___ hurdat_epa EP021983 15.1000 -114.000 HU 90 2 15.1624 -113.995 4 95 5 343
1983160N11266 1983 25 EP MM BARBARA 1983-06-15 09:00:00 TS 15.3882 -114.063 main 942 912 P_________P___ EP021983 15.3775 -114.065 HU 90 2 15.4203 -114.056 4 92 6 351
1983160N11266 1983 25 EP MM BARBARA 1983-06-15 12:00:00 TS 15.7000 -114.100 90 hurdat_epa main 912 883 O_________O___ hurdat_epa EP021983 15.7000 -114.100 HU 90 2 15.7000 -114.100 4 90 7 356
1983160N11266 1983 25 EP MM BARBARA 1983-06-15 15:00:00 TS 16.0414 -114.108 main 883 844 P_________P___ EP021983 16.0500 -114.100 HU 87 2 16.0156 -114.131 4 87 7 359
1983160N11266 1983 25 EP MM BARBARA 1983-06-15 18:00:00 TS 16.3875 -114.113 85 hurdat_epa main 844 815 O_________P___ hurdat_epa EP021983 16.4000 -114.100 HU 85 2 16.3500 -114.150 4 85 7 357
1983160N11266 1983 25 EP MM BARBARA 1983-06-15 21:00:00 TS 16.7073 -114.149 main 815 792 P_________P___ EP021983 16.7150 -114.142 HU 82 1 16.6844 -114.169 4 82 6 352
1983160N11266 1983 25 EP MM BARBARA 1983-06-16 00:00:00 TS 17.0000 -114.200 80 hurdat_epa main 792 773 O_________O___ hurdat_epa EP021983 17.0000 -114.200 HU 80 1 17.0000 -114.200 4 80 6 351
1983160N11266 1983 25 EP MM BARBARA 1983-06-16 03:00:00 TS 17.2630 -114.240 main 764 752 P_________P___ EP021983 17.2575 -114.243 HU 75 1 17.2796 -114.232 4 76 5 350
1983160N11266 1983 25 EP MM BARBARA 1983-06-16 06:00:00 TS 17.5093 -114.296 70 hurdat_epa main 752 734 O_________P___ hurdat_epa EP021983 17.5000 -114.300 HU 70 1 17.5373 -114.283 4 72 5 346
1983160N11266 1983 25 EP MM BARBARA 1983-06-16 09:00:00 TS 17.7566 -114.369 main 731 721 P_________P___ EP021983 17.7500 -114.370 HU 67 1 17.7764 -114.367 4 68 5 338
1983160N11266 1983 25 EP MM BARBARA 1983-06-16 12:00:00 TS 18.0000 -114.500 65 hurdat_epa main 721 710 O_________O___ hurdat_epa EP021983 18.0000 -114.500 HU 65 1 18.0000 -114.500 4 65 6 326
1983160N11266 1983 25 EP MM BARBARA 1983-06-16 15:00:00 TS 18.2554 -114.719 main 709 708 P_________P___ EP021983 18.2650 -114.727 HU 60 0 18.2266 -114.695 4 60 7 316
1983160N11266 1983 25 EP MM BARBARA 1983-06-16 18:00:00 TS 18.4844 -114.985 55 hurdat_epa main 715 715 O_________P___ hurdat_epa EP021983 18.5000 -115.000 TS 55 0 18.4376 -114.940 4 55 6 309
1983160N11266 1983 25 EP MM BARBARA 1983-06-16 21:00:00 TS 18.6618 -115.241 main 715 715 P_________P___ EP021983 18.6725 -115.250 TS 50 0 18.6297 -115.214 4 50 6 303
1983160N11266 1983 25 EP MM BARBARA 1983-06-17 00:00:00 TS 18.8000 -115.500 45 hurdat_epa main 732 732 O_________O___ hurdat_epa EP021983 18.8000 -115.500 TS 45 0 18.8000 -115.500 2 45 5 297
1983160N11266 1983 25 EP MM BARBARA 1983-06-17 03:00:00 TS 18.9116 -115.749 main 741 740 P_________P___ EP021983 18.8999 -115.743 TS 37 0 18.9465 -115.768 2 41 5 294
1983160N11266 1983 25 EP MM BARBARA 1983-06-17 06:00:00 TS 19.0181 -116.011 30 hurdat_epa main 752 749 O_________P___ hurdat_epa EP021983 19.0000 -116.000 TD 30 -1 19.0724 -116.043 2 37 6 295
1983160N11266 1983 25 EP MM BARBARA 1983-06-17 09:00:00 TS 19.1593 -116.305 main 751 751 P_________P___ EP021983 19.1500 -116.300 TD 30 -1 19.1871 -116.321 2 33 6 297
1983160N11266 1983 25 EP MM BARBARA 1983-06-17 12:00:00 TS 19.3000 -116.600 30 hurdat_epa main 761 758 O_________O___ hurdat_epa EP021983 19.3000 -116.600 TD 30 -1 19.3000 -116.600 1 30 6 296
1983160N11266 1983 25 EP MM BARBARA 1983-06-17 15:00:00 TS 19.4075 -116.852 main 771 769 P_________P___ EP021983 19.3999 -116.850 TD 30 -1 19.4303 -116.858 1 28 5 294
1983160N11266 1983 25 EP MM BARBARA 1983-06-17 18:00:00 TS 19.5150 -117.105 30 hurdat_epa main 776 774 O_________P___ hurdat_epa EP021983 19.5000 -117.100 TD 30 -1 19.5599 -117.119 1 27 6 296
1983160N11266 1983 25 EP MM BARBARA 1983-06-17 21:00:00 TS 19.6586 -117.388 main 780 780 P_________P___ EP021983 19.6499 -117.385 TD 27 -1 19.6846 -117.396 1 26 6 297
1983160N11266 1983 25 EP MM BARBARA 1983-06-18 00:00:00 TS 19.8000 -117.700 25 hurdat_epa main 794 794 O_________O___ hurdat_epa EP021983 19.8000 -117.700 TD 25 -1 19.8000 -117.700 1 25 7 292
1983160N11266 1983 25 EP MM BARBARA 1983-06-18 03:00:00 TS 19.9104 -118.042 main 809 809 P_________P___ EP021983 19.9127 -118.042 TD 22 -1 19.9036 -118.040 1 22 7 287
1983160N11266 1983 25 EP MM BARBARA 1983-06-18 06:00:00 TS 20.0000 -118.400 20 hurdat_epa main 832 O_________O___ hurdat_epa EP021983 20.0000 -118.400 TD 20 -1 20.0000 -118.400 1 20 7 285

About IBTrACS Database

This database is a web-friendly format of International Best Track Archive for Climate Stewardship (IBTrACS), a global best track data archive curated by NOAA dating back to 1842.

Updated: 2021-12-03